Time;durP1;ratioP1;P1;durP2;ratioP2;P2;SDS_P1;SDS_P2;PMS_P1;PMS_P2;Temp;Humidity;BMP_temperature;BMP_pressure;BME280_temperature;BME280_humidity;BME280_pressure;Samples;Min_cycle;Max_cycle;Signal;HPM_P1;HPM_P2
2022/02/11 00:02:17;;;;;;;0.00;0.00;;;5.90;99.90;;;;;;5065753;28;20184;-83
2022/02/11 00:04:39;;;;;;;0.10;0.10;;;6.00;99.90;;;;;;5053535;28;20256;-84
2022/02/11 00:07:06;;;;;;;0.00;0.00;;;5.70;99.90;;;;;;5064799;28;20181;-82
2022/02/11 00:09:32;;;;;;;0.00;0.00;;;5.60;99.90;;;;;;5064958;28;20252;-82
2022/02/11 00:11:57;;;;;;;0.00;0.00;;;5.50;99.90;;;;;;5069781;28;20198;-82
2022/02/11 00:14:25;;;;;;;0.10;0.10;;;5.40;99.90;;;;;;5061666;28;20180;-83
2022/02/11 00:16:50;;;;;;;0.17;0.17;;;5.30;99.90;;;;;;5070900;28;20672;-82
2022/02/11 00:19:16;;;;;;;0.10;0.10;;;5.30;99.90;;;;;;5063054;28;20180;-83
2022/02/11 00:21:41;;;;;;;0.00;0.00;;;5.20;99.90;;;;;;5067655;28;20181;-82
2022/02/11 00:24:07;;;;;;;0.10;0.10;;;5.10;99.90;;;;;;5064819;28;20189;-82
2022/02/11 00:26:36;;;;;;;0.10;0.10;;;5.00;99.90;;;;;;5069697;28;20193;-81
2022/02/11 00:34:20;;;;;;;0.10;0.10;;;4.60;99.90;;;;;;5067388;28;20181;-82
2022/02/11 00:36:58;;;;;;;0.10;0.10;;;4.60;99.90;;;;;;5060790;28;20645;-83
2022/02/11 00:39:50;;;;;;;0.10;0.10;;;4.50;99.90;;;;;;5065534;28;20189;-83
2022/02/11 01:03:59;;;;;;;0.00;0.00;;;4.50;99.90;;;;;;5061508;28;20711;-82
2022/02/11 01:06:26;;;;;;;0.00;0.00;;;4.60;99.90;;;;;;5065818;28;20197;-82
2022/02/11 01:08:52;;;;;;;0.00;0.00;;;4.50;99.90;;;;;;5061840;28;20180;-82
2022/02/11 01:11:25;;;;;;;0.03;0.03;;;4.50;99.90;;;;;;5066467;28;20283;-81
2022/02/11 01:13:51;;;;;;;0.00;0.00;;;4.50;99.90;;;;;;5065840;28;20186;-82
2022/02/11 01:16:22;;;;;;;0.10;0.10;;;4.40;99.90;;;;;;5062537;28;20208;-81
2022/02/11 01:18:56;;;;;;;0.10;0.10;;;4.40;99.90;;;;;;5061771;28;20249;-82
2022/02/11 01:21:31;;;;;;;0.00;0.00;;;4.30;99.90;;;;;;5063205;28;20179;-82
2022/02/11 01:24:13;;;;;;;0.10;0.10;;;4.40;99.90;;;;;;5069948;28;20668;-82
2022/02/11 01:27:03;;;;;;;0.00;0.00;;;4.30;99.90;;;;;;5071408;28;20563;-83
2022/02/11 01:40:11;;;;;;;0.00;0.00;;;4.40;99.90;;;;;;5064309;28;20274;-83
2022/02/11 01:45:28;;;;;;;0.03;0.03;;;4.40;99.90;;;;;;5063966;28;20258;-83
2022/02/11 01:53:33;;;;;;;0.10;0.10;;;4.50;99.90;;;;;;5062092;28;20188;-83
2022/02/11 02:09:56;;;;;;;0.00;0.00;;;4.30;99.90;;;;;;5058464;28;20257;-82
2022/02/11 02:23:15;;;;;;;0.03;0.03;;;4.10;99.90;;;;;;5067802;28;20200;-82
2022/02/11 02:29:18;;;;;;;0.10;0.10;;;4.30;99.90;;;;;;5071721;28;20169;-82
2022/02/11 02:39:34;;;;;;;0.10;0.10;;;4.70;99.90;;;;;;5061725;28;20275;-83
2022/02/11 02:50:23;;;;;;;0.10;0.10;;;4.80;99.90;;;;;;5066591;28;20190;-83
2022/02/11 02:58:27;;;;;;;0.10;0.10;;;4.80;99.90;;;;;;5064534;28;20208;-82
2022/02/11 03:49:55;;;;;;;0.10;0.10;;;3.80;99.90;;;;;;5060254;28;20196;-82
2022/02/11 03:55:45;;;;;;;0.10;0.10;;;3.80;99.90;;;;;;5069720;28;20667;-83
2022/02/11 05:00:14;;;;;;;0.00;0.00;;;3.20;99.90;;;;;;5059553;28;20676;-83
2022/02/11 05:02:42;;;;;;;0.00;0.00;;;3.20;99.90;;;;;;5066570;28;20546;-82
2022/02/11 05:05:09;;;;;;;0.10;0.10;;;3.10;99.90;;;;;;5072840;28;20219;-83
2022/02/11 05:07:36;;;;;;;0.00;0.00;;;3.10;99.90;;;;;;5060002;28;20175;-83
2022/02/11 05:10:03;;;;;;;0.10;0.10;;;3.10;99.90;;;;;;5057061;28;20187;-83
2022/02/11 05:12:28;;;;;;;0.10;0.10;;;3.20;99.90;;;;;;5066054;28;20272;-83
2022/02/11 05:14:54;;;;;;;0.10;0.10;;;3.10;99.90;;;;;;5056400;28;20202;-83
2022/02/11 05:17:19;;;;;;;0.00;0.00;;;3.10;99.90;;;;;;5067054;28;20187;-82
2022/02/11 05:19:45;;;;;;;0.00;0.00;;;3.10;99.90;;;;;;5057381;28;20176;-83
2022/02/11 05:22:10;;;;;;;0.10;0.10;;;3.10;99.90;;;;;;5064589;28;20178;-83
2022/02/11 05:24:36;;;;;;;0.10;0.10;;;2.90;99.90;;;;;;5059459;28;20217;-82
2022/02/11 05:27:02;;;;;;;0.10;0.10;;;2.90;99.90;;;;;;5062556;28;20212;-82
2022/02/11 05:29:27;;;;;;;0.10;0.10;;;2.90;99.90;;;;;;5062072;28;20617;-83
2022/02/11 05:31:53;;;;;;;0.07;0.07;;;2.80;99.90;;;;;;5068185;28;20564;-83
2022/02/11 05:34:18;;;;;;;0.10;0.10;;;2.80;99.90;;;;;;5068662;28;20178;-82
2022/02/11 05:36:44;;;;;;;0.10;0.10;;;2.90;99.90;;;;;;5061820;28;20585;-83
2022/02/11 05:39:10;;;;;;;0.30;0.30;;;2.80;99.90;;;;;;5058523;28;20553;-83
2022/02/11 05:41:35;;;;;;;0.00;0.00;;;2.80;99.90;;;;;;5065403;28;20198;-83
2022/02/11 05:44:01;;;;;;;0.00;0.00;;;2.90;99.90;;;;;;5055938;28;20639;-83
2022/02/11 05:46:29;;;;;;;0.20;0.20;;;3.00;99.90;;;;;;5066684;28;20204;-82
2022/02/11 05:48:54;;;;;;;0.10;0.10;;;2.90;99.90;;;;;;5055394;28;20176;-83
2022/02/11 05:51:20;;;;;;;1.50;0.23;;;3.00;99.90;;;;;;5066511;28;20185;-82
2022/02/11 05:53:46;;;;;;;0.10;0.10;;;3.10;99.90;;;;;;5061813;28;20667;-82
2022/02/11 05:56:11;;;;;;;0.10;0.10;;;3.10;99.90;;;;;;5070629;28;20452;-83
2022/02/11 05:58:38;;;;;;;0.20;0.20;;;3.10;99.90;;;;;;5061741;28;20183;-82
2022/02/11 06:01:04;;;;;;;0.23;0.20;;;3.00;99.90;;;;;;5068646;28;20177;-83
2022/02/11 06:03:30;;;;;;;0.10;0.10;;;3.00;99.90;;;;;;5071222;28;20202;-83
2022/02/11 06:05:56;;;;;;;0.10;0.10;;;3.00;99.90;;;;;;5066003;28;20266;-82
2022/02/11 06:08:21;;;;;;;0.13;0.13;;;3.00;99.90;;;;;;5064114;28;20180;-83
2022/02/11 06:10:48;;;;;;;0.10;0.10;;;3.00;99.90;;;;;;5067577;28;20652;-82
2022/02/11 06:13:14;;;;;;;0.10;0.10;;;2.90;99.90;;;;;;5062370;28;20181;-82
2022/02/11 06:15:42;;;;;;;0.10;0.10;;;2.90;99.90;;;;;;5068237;28;20203;-82
2022/02/11 06:18:07;;;;;;;0.37;0.20;;;2.90;99.90;;;;;;5060413;28;20717;-82
2022/02/11 06:20:33;;;;;;;0.40;0.40;;;2.90;99.90;;;;;;5069352;28;20228;-82
2022/02/11 06:22:58;;;;;;;0.10;0.10;;;3.00;99.90;;;;;;5065061;28;20249;-83
2022/02/11 06:25:24;;;;;;;0.23;0.23;;;3.00;99.90;;;;;;5069961;28;20219;-83
2022/02/11 06:27:50;;;;;;;0.00;0.00;;;3.00;99.90;;;;;;5064355;28;20238;-84
2022/02/11 06:30:15;;;;;;;0.73;0.73;;;3.00;99.90;;;;;;5062987;28;20258;-82
2022/02/11 06:32:41;;;;;;;0.23;0.23;;;2.90;99.90;;;;;;5070378;28;20186;-82
2022/02/11 06:35:08;;;;;;;0.10;0.10;;;3.00;99.90;;;;;;5067827;28;20670;-83
2022/02/11 06:37:34;;;;;;;0.13;0.13;;;3.00;99.90;;;;;;5068340;28;20558;-83
2022/02/11 06:39:59;;;;;;;0.23;0.23;;;3.20;99.90;;;;;;5065712;28;20172;-83
2022/02/11 06:42:25;;;;;;;0.10;0.10;;;3.30;99.90;;;;;;5071813;28;20183;-82
2022/02/11 06:44:51;;;;;;;0.17;0.17;;;3.40;99.90;;;;;;5063936;28;20230;-83
2022/02/11 06:47:17;;;;;;;0.10;0.10;;;3.40;99.90;;;;;;5063622;28;20174;-82
2022/02/11 06:49:43;;;;;;;0.30;0.30;;;3.50;99.90;;;;;;5060931;28;20180;-83
2022/02/11 06:52:09;;;;;;;0.10;0.10;;;3.50;99.90;;;;;;5067865;28;20176;-82
2022/02/11 06:54:36;;;;;;;0.20;0.20;;;3.50;99.90;;;;;;5059114;28;20180;-83
2022/02/11 06:57:01;;;;;;;0.10;0.10;;;3.70;99.90;;;;;;5068695;28;20177;-82
2022/02/11 06:59:27;;;;;;;0.30;0.30;;;3.70;99.90;;;;;;5084794;28;20320;-83
2022/02/11 07:01:53;;;;;;;0.20;0.20;;;3.90;99.90;;;;;;5067931;28;20180;-82
2022/02/11 07:04:18;;;;;;;0.27;0.27;;;4.00;99.90;;;;;;5057214;28;20216;-82
2022/02/11 07:06:44;;;;;;;0.23;0.23;;;4.10;99.90;;;;;;5061008;28;20267;-83
2022/02/11 07:09:09;;;;;;;0.97;0.77;;;4.10;99.90;;;;;;5067457;28;20268;-82
2022/02/11 07:11:35;;;;;;;0.20;0.20;;;4.00;99.90;;;;;;5061145;28;20177;-82
2022/02/11 07:14:00;;;;;;;0.83;0.40;;;4.10;99.90;;;;;;5066099;28;20176;-82
2022/02/11 07:16:26;;;;;;;0.20;0.20;;;4.10;99.90;;;;;;5065400;28;20292;-83
2022/02/11 07:18:51;;;;;;;0.10;0.10;;;4.10;99.90;;;;;;5067687;28;20184;-82
2022/02/11 07:21:17;;;;;;;0.73;0.60;;;4.20;99.90;;;;;;5073169;28;20636;-82
2022/02/11 07:23:42;;;;;;;0.20;0.20;;;4.30;99.90;;;;;;5067834;28;20199;-82
2022/02/11 07:26:08;;;;;;;0.60;0.17;;;4.40;99.90;;;;;;5072028;28;20201;-82
2022/02/11 07:28:33;;;;;;;0.87;0.87;;;4.40;99.90;;;;;;5060004;28;20177;-82
2022/02/11 07:31:01;;;;;;;0.90;0.57;;;4.40;99.90;;;;;;5062594;28;20188;-82
2022/02/11 07:33:26;;;;;;;0.10;0.10;;;4.40;99.90;;;;;;5067379;28;20662;-83
2022/02/11 07:35:52;;;;;;;1.17;0.23;;;4.40;99.90;;;;;;5070563;28;20208;-82
2022/02/11 07:38:18;;;;;;;0.10;0.10;;;4.40;99.90;;;;;;5059947;28;20268;-81
2022/02/11 07:40:44;;;;;;;0.67;0.43;;;4.40;99.90;;;;;;5067285;28;20326;-82
2022/02/11 07:43:09;;;;;;;0.50;0.30;;;4.40;99.90;;;;;;5068803;28;20303;-82
2022/02/11 07:45:36;;;;;;;0.80;0.80;;;4.40;99.90;;;;;;5070408;28;20215;-83
2022/02/11 07:48:03;;;;;;;0.37;0.37;;;4.70;99.90;;;;;;5067514;28;20578;-82
2022/02/11 07:50:29;;;;;;;0.63;0.20;;;4.90;99.90;;;;;;5067191;28;20181;-82
2022/02/11 07:52:56;;;;;;;0.30;0.30;;;5.10;99.90;;;;;;5071350;28;20189;-82
2022/02/11 07:55:21;;;;;;;0.20;0.20;;;5.30;99.90;;;;;;5067580;28;20639;-83
2022/02/11 07:57:47;;;;;;;1.20;0.30;;;5.30;99.90;;;;;;5060646;28;20196;-83
2022/02/11 08:00:14;;;;;;;0.10;0.10;;;5.20;99.90;;;;;;5067525;28;20182;-81
2022/02/11 08:02:41;;;;;;;0.00;0.00;;;5.40;99.90;;;;;;5060288;28;20615;-82
2022/02/11 08:05:10;;;;;;;1.87;0.30;;;5.70;99.90;;;;;;5061531;28;20208;-82
2022/02/11 08:07:35;;;;;;;0.17;0.13;;;5.70;99.90;;;;;;5058369;28;20177;-83
2022/02/11 08:10:01;;;;;;;0.77;0.40;;;5.50;99.90;;;;;;5068625;28;20239;-82
2022/02/11 08:12:29;;;;;;;0.63;0.37;;;5.40;99.90;;;;;;5072790;28;20205;-82
2022/02/11 08:14:55;;;;;;;0.20;0.20;;;5.40;99.90;;;;;;5059024;28;20685;-82
2022/02/11 08:17:20;;;;;;;0.50;0.43;;;5.30;99.90;;;;;;5068894;28;20173;-82
2022/02/11 08:19:46;;;;;;;0.20;0.20;;;5.30;99.90;;;;;;5058679;28;20224;-82
2022/02/11 08:22:11;;;;;;;0.20;0.20;;;5.40;99.90;;;;;;5066773;28;20237;-82
2022/02/11 08:24:37;;;;;;;0.50;0.33;;;5.40;99.90;;;;;;5069330;28;20209;-82
2022/02/11 08:27:03;;;;;;;0.87;0.53;;;5.70;99.90;;;;;;5065204;28;20263;-82
2022/02/11 08:29:31;;;;;;;1.00;0.30;;;6.10;99.90;;;;;;5064586;28;20209;-82
2022/02/11 08:31:57;;;;;;;0.30;0.30;;;6.00;99.90;;;;;;5064177;28;20181;-83
2022/02/11 08:34:24;;;;;;;0.20;0.20;;;5.90;99.90;;;;;;5061058;28;20188;-83
2022/02/11 08:36:50;;;;;;;0.20;0.10;;;5.90;99.90;;;;;;5066267;28;20181;-82
2022/02/11 08:39:17;;;;;;;0.30;0.30;;;6.00;99.90;;;;;;5059151;28;20184;-83
2022/02/11 08:41:43;;;;;;;0.20;0.20;;;6.20;99.90;;;;;;5064634;28;20232;-82
2022/02/11 08:44:08;;;;;;;0.40;0.40;;;6.00;99.90;;;;;;5067140;28;20225;-83
2022/02/11 08:46:34;;;;;;;0.10;0.10;;;5.90;99.90;;;;;;5070468;28;20291;-83
2022/02/11 08:49:00;;;;;;;0.30;0.30;;;5.80;99.90;;;;;;5057259;28;20256;-82
2022/02/11 08:51:27;;;;;;;0.70;0.40;;;6.20;99.90;;;;;;5067096;28;20646;-82
2022/02/11 08:53:53;;;;;;;0.10;0.10;;;6.60;99.90;;;;;;5059426;28;20190;-82
2022/02/11 08:56:18;;;;;;;0.27;0.27;;;6.60;99.90;;;;;;5066222;28;20291;-83
2022/02/11 08:58:44;;;;;;;1.63;0.93;;;6.60;99.90;;;;;;5059780;28;20196;-82
2022/02/11 09:01:10;;;;;;;0.20;0.20;;;6.40;99.90;;;;;;5065527;28;20185;-82
2022/02/11 09:03:36;;;;;;;2.10;0.20;;;6.40;99.90;;;;;;5067035;28;20204;-82
2022/02/11 09:06:04;;;;;;;0.10;0.10;;;6.60;99.90;;;;;;5067370;28;20205;-82
2022/02/11 09:08:30;;;;;;;0.10;0.10;;;7.00;99.90;;;;;;5062694;28;20186;-83
2022/02/11 09:10:55;;;;;;;0.63;0.20;;;6.80;99.90;;;;;;5059391;28;20549;-83
2022/02/11 09:13:23;;;;;;;0.10;0.10;;;6.90;99.90;;;;;;5064396;28;20247;-83
2022/02/11 09:15:48;;;;;;;0.27;0.27;;;7.00;99.90;;;;;;5059006;28;20201;-83
2022/02/11 09:18:14;;;;;;;0.03;0.03;;;6.80;99.90;;;;;;5062429;28;20579;-82
2022/02/11 09:20:40;;;;;;;0.07;0.07;;;6.90;99.90;;;;;;5066320;28;20169;-82
2022/02/11 09:23:06;;;;;;;0.10;0.10;;;7.40;99.90;;;;;;5056628;28;20224;-83
2022/02/11 09:25:33;;;;;;;0.10;0.10;;;7.30;99.90;;;;;;5066432;28;20681;-83
2022/02/11 09:27:59;;;;;;;0.33;0.30;;;7.30;99.90;;;;;;5063528;28;20193;-83
2022/02/11 09:30:25;;;;;;;0.10;0.10;;;7.30;99.90;;;;;;5066532;28;20188;-83
2022/02/11 09:32:52;;;;;;;0.10;0.10;;;7.50;99.90;;;;;;5058427;28;20673;-83
2022/02/11 09:35:20;;;;;;;0.10;0.10;;;7.50;99.90;;;;;;5064136;28;20212;-82
2022/02/11 09:37:46;;;;;;;0.30;0.30;;;7.20;99.90;;;;;;5058638;28;20181;-83
2022/02/11 09:40:16;;;;;;;0.10;0.10;;;7.50;99.90;;;;;;5056196;28;20320;-82
2022/02/11 09:42:42;;;;;;;0.03;0.03;;;7.40;99.90;;;;;;5060110;28;20210;-83
2022/02/11 09:45:09;;;;;;;0.67;0.30;;;7.40;99.90;;;;;;5059887;28;20201;-83
2022/02/11 09:47:38;;;;;;;0.10;0.10;;;7.60;99.90;;;;;;5064304;28;20210;-83
2022/02/11 09:50:05;;;;;;;0.20;0.20;;;7.40;99.90;;;;;;5080479;28;20650;-83
2022/02/11 09:52:42;;;;;;;0.20;0.20;;;7.10;99.90;;;;;;5065831;28;20177;-83
2022/02/11 09:57:53;;;;;;;0.67;0.30;;;6.80;99.90;;;;;;5059117;28;20616;-82
2022/02/11 10:00:23;;;;;;;0.17;0.17;;;6.70;99.90;;;;;;5065665;28;20261;-82
2022/02/11 10:02:50;;;;;;;0.20;0.20;;;6.80;99.90;;;;;;5064720;28;20280;-83
2022/02/11 10:05:24;;;;;;;0.20;0.20;;;6.70;99.90;;;;;;5057628;28;20244;-83
2022/02/11 10:07:50;;;;;;;0.10;0.10;;;6.70;99.90;;;;;;5065754;28;20178;-83
2022/02/11 10:10:38;;;;;;;0.13;0.13;;;6.70;99.90;;;;;;5060486;28;20185;-83
2022/02/11 10:13:06;;;;;;;1.40;0.23;;;6.60;99.90;;;;;;5060359;28;20678;-83
2022/02/11 10:15:33;;;;;;;0.97;0.77;;;6.60;99.90;;;;;;5055464;28;20275;-83
2022/02/11 10:17:58;;;;;;;0.20;0.20;;;6.60;99.90;;;;;;5067108;28;20551;-83
2022/02/11 10:20:24;;;;;;;0.03;0.03;;;6.50;99.90;;;;;;5062020;28;20188;-83
2022/02/11 10:22:49;;;;;;;0.10;0.10;;;6.40;99.90;;;;;;5066945;28;20185;-83
2022/02/11 10:25:15;;;;;;;0.20;0.20;;;6.40;99.90;;;;;;5056046;28;20665;-84
2022/02/11 10:27:41;;;;;;;0.10;0.10;;;6.40;99.90;;;;;;5061127;28;20220;-82
2022/02/11 10:30:09;;;;;;;1.07;0.40;;;6.30;99.90;;;;;;5066507;28;20638;-82
2022/02/11 10:32:48;;;;;;;0.17;0.17;;;6.40;99.90;;;;;;5057884;28;20219;-82
2022/02/11 10:35:24;;;;;;;0.10;0.10;;;6.50;99.90;;;;;;5061885;28;20237;-83
2022/02/11 10:38:10;;;;;;;0.10;0.10;;;6.50;99.90;;;;;;5067594;28;20184;-82
2022/02/11 10:40:38;;;;;;;0.33;0.33;;;6.50;99.90;;;;;;5067938;28;20238;-83
2022/02/11 10:43:16;;;;;;;0.20;0.20;;;6.40;99.90;;;;;;5067216;28;20603;-83
2022/02/11 10:45:42;;;;;;;0.40;0.40;;;6.30;99.90;;;;;;5062519;28;20224;-83
2022/02/11 10:48:16;;;;;;;0.07;0.07;;;6.10;99.90;;;;;;5065136;28;20642;-83
2022/02/11 10:50:53;;;;;;;0.10;0.10;;;6.00;99.90;;;;;;5063405;28;20273;-83
2022/02/11 10:53:23;;;;;;;1.03;0.53;;;6.00;99.90;;;;;;5066953;28;20212;-82
2022/02/11 10:55:51;;;;;;;0.00;0.00;;;6.00;99.90;;;;;;5063163;28;20240;-83
2022/02/11 10:58:18;;;;;;;2.97;0.60;;;6.20;99.90;;;;;;5068589;28;20176;-83
2022/02/11 11:00:45;;;;;;;0.20;0.20;;;6.50;99.90;;;;;;5075764;28;20195;-82
2022/02/11 11:03:11;;;;;;;0.23;0.23;;;6.80;99.90;;;;;;5072511;28;20219;-82
2022/02/11 11:05:42;;;;;;;0.20;0.20;;;7.10;99.90;;;;;;5065607;28;20232;-82
2022/02/11 11:08:13;;;;;;;0.10;0.10;;;7.50;99.90;;;;;;5072066;28;20170;-82
2022/02/11 11:10:42;;;;;;;0.10;0.10;;;7.70;99.90;;;;;;5078269;28;20185;-82
2022/02/11 11:13:12;;;;;;;0.20;0.20;;;8.00;99.90;;;;;;5068020;28;20237;-82
2022/02/11 11:15:38;;;;;;;0.10;0.10;;;8.30;99.90;;;;;;5072694;28;20213;-82
2022/02/11 11:18:07;;;;;;;0.20;0.20;;;8.50;99.90;;;;;;5071726;28;20317;-82
2022/02/11 11:20:36;;;;;;;0.10;0.10;;;8.70;99.90;;;;;;5063799;28;20227;-82
2022/02/11 11:23:13;;;;;;;0.10;0.10;;;8.70;99.90;;;;;;5060210;28;20250;-82
2022/02/11 11:26:05;;;;;;;0.10;0.10;;;8.90;99.90;;;;;;5070635;28;20238;-82
2022/02/11 11:28:41;;;;;;;0.10;0.10;;;9.00;99.90;;;;;;5066006;28;20190;-82
2022/02/11 11:31:12;;;;;;;0.87;0.40;;;9.10;99.90;;;;;;5060981;28;20180;-83
2022/02/11 11:33:38;;;;;;;0.33;0.30;;;8.90;99.90;;;;;;5070055;28;20183;-83
2022/02/11 11:36:07;;;;;;;0.10;0.10;;;8.60;99.90;;;;;;5064454;28;20203;-82
2022/02/11 11:38:39;;;;;;;0.10;0.10;;;8.30;99.90;;;;;;5066247;28;20299;-82
2022/02/11 11:41:20;;;;;;;5.53;0.30;;;8.10;99.90;;;;;;5062035;28;20209;-83
2022/02/11 11:43:54;;;;;;;0.27;0.27;;;7.90;99.90;;;;;;5072369;28;20208;-82
2022/02/11 11:46:20;;;;;;;0.10;0.10;;;7.40;99.90;;;;;;5070009;28;20215;-83
2022/02/11 11:49:05;;;;;;;0.13;0.13;;;7.10;99.90;;;;;;5058313;28;20638;-82
2022/02/11 11:51:51;;;;;;;0.10;0.10;;;6.90;99.90;;;;;;5067654;28;20227;-83
2022/02/11 11:54:17;;;;;;;0.33;0.33;;;6.80;99.90;;;;;;5067421;28;20193;-82
2022/02/11 11:56:52;;;;;;;0.10;0.10;;;6.80;99.90;;;;;;5058461;28;20671;-83
2022/02/11 11:59:20;;;;;;;0.20;0.20;;;6.90;99.90;;;;;;5070979;28;20182;-82
2022/02/11 12:02:02;;;;;;;0.10;0.10;;;7.00;99.90;;;;;;5066117;28;20173;-82
2022/02/11 12:04:30;;;;;;;0.10;0.10;;;7.00;99.90;;;;;;5059463;28;20217;-82
2022/02/11 12:06:57;;;;;;;0.10;0.10;;;7.00;99.90;;;;;;5062962;28;20216;-82
2022/02/11 12:09:24;;;;;;;0.10;0.10;;;7.10;99.90;;;;;;5071020;28;20185;-82
2022/02/11 12:11:57;;;;;;;0.10;0.10;;;7.20;99.90;;;;;;5060890;28;20183;-83
2022/02/11 12:14:25;;;;;;;0.50;0.50;;;7.50;99.90;;;;;;5076097;28;20181;-82
2022/02/11 12:16:51;;;;;;;0.07;0.07;;;7.80;99.90;;;;;;5061916;28;20252;-82
2022/02/11 12:19:17;;;;;;;0.10;0.10;;;8.10;99.90;;;;;;5066675;28;20559;-82
2022/02/11 12:21:42;;;;;;;0.47;0.47;;;8.40;99.90;;;;;;5070411;28;20277;-82
2022/02/11 12:29:37;;;;;;;0.20;0.20;;;8.40;99.90;;;;;;5067437;28;20229;-82
2022/02/11 12:32:03;;;;;;;0.23;0.23;;;7.80;99.90;;;;;;5068890;28;20187;-83
2022/02/11 12:34:29;;;;;;;0.10;0.10;;;7.50;99.90;;;;;;5065969;28;20178;-82
2022/02/11 12:37:08;;;;;;;0.10;0.10;;;6.90;99.90;;;;;;5063572;28;20223;-82
2022/02/11 12:39:34;;;;;;;0.10;0.10;;;6.40;99.90;;;;;;5069584;28;20177;-83
2022/02/11 12:42:00;;;;;;;0.57;0.27;;;6.20;99.90;;;;;;5060225;28;20177;-82
2022/02/11 12:44:31;;;;;;;0.17;0.17;;;6.20;99.90;;;;;;5068116;28;20205;-82
2022/02/11 12:47:02;;;;;;;0.10;0.10;;;6.50;99.90;;;;;;5057986;28;20662;-83
2022/02/11 12:49:30;;;;;;;0.10;0.10;;;6.80;99.90;;;;;;5068506;28;20180;-83
2022/02/11 12:51:57;;;;;;;0.30;0.30;;;7.00;99.90;;;;;;5058650;28;20182;-82
2022/02/11 12:54:23;;;;;;;0.07;0.07;;;7.30;99.90;;;;;;5068735;28;20184;-82
2022/02/11 12:57:00;;;;;;;0.30;0.30;;;7.70;99.90;;;;;;5058067;28;20190;-82
2022/02/11 12:59:25;;;;;;;0.30;0.30;;;7.80;99.90;;;;;;5069013;28;20207;-82
2022/02/11 13:01:51;;;;;;;0.10;0.10;;;7.70;99.90;;;;;;5069543;28;20180;-82
2022/02/11 13:04:18;;;;;;;0.00;0.00;;;7.90;99.90;;;;;;5058881;28;20627;-83
2022/02/11 13:06:44;;;;;;;0.13;0.13;;;8.10;99.90;;;;;;5067682;28;20176;-82
2022/02/11 13:09:11;;;;;;;0.13;0.13;;;8.20;99.90;;;;;;5058654;28;20182;-83
2022/02/11 13:11:37;;;;;;;0.20;0.20;;;8.50;99.90;;;;;;5066745;28;20231;-82
2022/02/11 13:14:07;;;;;;;0.60;0.27;;;8.50;99.90;;;;;;5059885;28;20188;-83
2022/02/11 13:16:35;;;;;;;0.93;0.37;;;8.70;99.90;;;;;;5064074;28;20212;-82
2022/02/11 13:19:16;;;;;;;0.47;0.47;;;8.80;99.90;;;;;;5069446;28;20183;-82
2022/02/11 13:21:43;;;;;;;0.10;0.10;;;8.80;99.90;;;;;;5061693;28;20189;-83
2022/02/11 13:24:10;;;;;;;0.10;0.10;;;9.40;99.90;;;;;;5061682;28;20246;-83
2022/02/11 13:26:37;;;;;;;0.33;0.33;;;9.50;99.90;;;;;;5066925;28;20219;-83
2022/02/11 13:29:11;;;;;;;0.23;0.23;;;9.40;99.90;;;;;;5060921;28;20175;-82
2022/02/11 13:31:51;;;;;;;0.10;0.10;;;9.70;99.90;;;;;;5065972;28;20201;-83
2022/02/11 13:34:17;;;;;;;0.67;0.20;;;10.00;99.90;;;;;;5063356;28;20189;-82
2022/02/11 13:36:48;;;;;;;0.17;0.17;;;9.90;99.90;;;;;;5059775;28;20546;-83
2022/02/11 13:39:28;;;;;;;0.20;0.20;;;9.50;99.90;;;;;;5066204;28;20177;-83
2022/02/11 13:41:54;;;;;;;0.20;0.20;;;8.20;99.90;;;;;;5065940;28;20189;-83
2022/02/11 13:44:21;;;;;;;0.10;0.10;;;6.90;99.90;;;;;;5057369;28;20212;-82
2022/02/11 13:46:54;;;;;;;0.37;0.37;;;6.20;99.90;;;;;;5065520;28;20185;-83
2022/02/11 13:49:23;;;;;;;1.60;0.33;;;5.60;99.90;;;;;;5058293;28;20256;-82
2022/02/11 13:54:59;;;;;;;0.30;0.20;;;5.40;99.90;;;;;;5059817;28;20209;-82
2022/02/11 13:57:25;;;;;;;0.10;0.10;;;5.50;99.90;;;;;;5066676;28;20182;-83
2022/02/11 13:59:51;;;;;;;0.20;0.20;;;5.50;99.90;;;;;;5066416;28;20565;-82
2022/02/11 14:02:19;;;;;;;0.10;0.10;;;5.60;99.90;;;;;;5065044;28;20177;-82
2022/02/11 14:04:46;;;;;;;0.70;0.43;;;5.80;99.90;;;;;;5066741;28;20717;-83
2022/02/11 14:07:15;;;;;;;0.10;0.10;;;5.90;99.90;;;;;;5083021;28;20188;-82
2022/02/11 14:09:41;;;;;;;0.17;0.17;;;5.90;99.90;;;;;;5057195;28;20185;-82
2022/02/11 14:12:28;;;;;;;2.17;0.70;;;6.10;99.90;;;;;;5068237;28;20172;-83
2022/02/11 14:14:57;;;;;;;0.10;0.10;;;6.20;99.90;;;;;;5061307;28;20893;-83
2022/02/11 14:17:23;;;;;;;0.10;0.10;;;6.40;99.90;;;;;;5069362;28;20223;-82
2022/02/11 14:19:49;;;;;;;0.10;0.10;;;6.50;99.90;;;;;;5061070;28;20789;-83
2022/02/11 14:22:14;;;;;;;0.03;0.03;;;6.60;99.90;;;;;;5062277;28;20188;-82
2022/02/11 14:24:40;;;;;;;0.10;0.10;;;6.70;99.90;;;;;;5068575;28;20223;-82
2022/02/11 14:27:08;;;;;;;0.10;0.10;;;6.60;99.90;;;;;;5065012;28;20639;-83
2022/02/11 14:29:34;;;;;;;0.10;0.10;;;6.80;99.90;;;;;;5069728;28;20181;-83
2022/02/11 14:32:00;;;;;;;0.20;0.20;;;6.70;99.90;;;;;;5072079;28;20230;-84
2022/02/11 14:34:25;;;;;;;0.53;0.53;;;6.70;99.90;;;;;;5065771;28;20220;-82
2022/02/11 14:36:51;;;;;;;0.10;0.10;;;6.80;99.90;;;;;;5070694;28;20177;-83
2022/02/11 14:39:18;;;;;;;0.10;0.10;;;6.80;99.90;;;;;;5061562;28;20594;-83
2022/02/11 14:41:49;;;;;;;0.10;0.10;;;6.90;99.90;;;;;;5071397;28;20270;-84
2022/02/11 14:44:26;;;;;;;0.53;0.53;;;7.10;99.90;;;;;;5062623;28;20201;-83
2022/02/11 14:46:54;;;;;;;1.77;1.00;;;7.00;99.90;;;;;;5062322;28;20172;-82
2022/02/11 14:49:21;;;;;;;0.10;0.10;;;7.20;99.90;;;;;;5066122;28;20557;-83
2022/02/11 14:51:53;;;;;;;0.10;0.10;;;7.40;99.90;;;;;;5058411;28;20235;-83
2022/02/11 14:54:19;;;;;;;0.20;0.20;;;7.50;99.90;;;;;;5069310;28;20178;-83
2022/02/11 14:56:47;;;;;;;0.10;0.10;;;7.40;99.90;;;;;;5064520;28;20181;-83
2022/02/11 14:59:14;;;;;;;0.93;0.50;;;7.40;99.90;;;;;;5062743;28;20561;-83
2022/02/11 15:01:40;;;;;;;0.20;0.20;;;7.30;99.90;;;;;;5059205;28;20604;-82
2022/02/11 15:04:05;;;;;;;0.43;0.20;;;7.30;99.90;;;;;;5069390;28;20290;-82
2022/02/11 15:06:31;;;;;;;0.00;0.00;;;7.10;99.90;;;;;;5061186;28;20282;-83
2022/02/11 15:08:57;;;;;;;0.10;0.10;;;7.10;99.90;;;;;;5071727;28;20174;-83
2022/02/11 15:11:22;;;;;;;1.60;0.70;;;7.00;99.90;;;;;;5063770;28;20255;-82
2022/02/11 15:13:48;;;;;;;0.10;0.10;;;7.10;99.90;;;;;;5064922;28;20192;-82
2022/02/11 15:16:13;;;;;;;1.20;0.37;;;7.20;99.90;;;;;;5063992;28;20205;-83
2022/02/11 15:18:39;;;;;;;0.10;0.10;;;7.20;99.90;;;;;;5061437;28;20653;-83
2022/02/11 15:21:06;;;;;;;0.10;0.10;;;7.00;99.90;;;;;;5066154;28;20185;-83
2022/02/11 15:23:36;;;;;;;0.10;0.10;;;7.00;99.90;;;;;;5058161;28;20619;-82
2022/02/11 15:26:04;;;;;;;5.40;0.57;;;7.00;99.90;;;;;;5061284;28;20612;-83
2022/02/11 15:28:35;;;;;;;0.67;0.30;;;6.90;99.90;;;;;;5063020;28;20217;-84
2022/02/11 15:31:01;;;;;;;0.13;0.13;;;6.80;99.90;;;;;;5058389;28;20247;-83
2022/02/11 15:33:27;;;;;;;0.10;0.10;;;6.80;99.90;;;;;;5068528;28;20228;-82
2022/02/11 15:35:52;;;;;;;0.10;0.10;;;6.70;99.90;;;;;;5057927;28;20206;-83
2022/02/11 15:38:18;;;;;;;0.70;0.70;;;6.70;99.90;;;;;;5068034;28;20178;-82
2022/02/11 15:40:45;;;;;;;0.10;0.10;;;6.70;99.90;;;;;;5060959;28;20176;-83
2022/02/11 15:43:11;;;;;;;0.50;0.50;;;6.60;99.90;;;;;;5065276;28;20194;-83
2022/02/11 15:45:37;;;;;;;0.57;0.57;;;6.60;99.90;;;;;;5067639;28;20247;-82
2022/02/11 15:48:02;;;;;;;0.30;0.20;;;6.50;99.90;;;;;;5059783;28;20174;-82
2022/02/11 15:50:28;;;;;;;1.40;0.60;;;6.50;99.90;;;;;;5065893;28;20177;-83
2022/02/11 15:52:54;;;;;;;1.40;1.40;;;6.40;99.90;;;;;;5063746;28;20777;-83
2022/02/11 15:55:20;;;;;;;0.17;0.17;;;6.40;99.90;;;;;;5059008;28;20198;-83
2022/02/11 15:57:46;;;;;;;0.03;0.03;;;6.40;99.90;;;;;;5061929;28;20180;-83
2022/02/11 16:00:12;;;;;;;0.40;0.40;;;6.30;99.90;;;;;;5066580;28;20547;-82
2022/02/11 16:02:38;;;;;;;1.30;1.23;;;6.20;99.90;;;;;;5087517;28;20738;-83
2022/02/11 16:05:08;;;;;;;0.17;0.17;;;6.10;99.90;;;;;;5058978;28;20208;-82
2022/02/11 16:07:36;;;;;;;0.10;0.10;;;6.10;99.90;;;;;;5063156;28;20272;-84
2022/02/11 16:10:03;;;;;;;0.20;0.20;;;6.00;99.90;;;;;;5071844;28;20656;-84
2022/02/11 16:12:30;;;;;;;0.10;0.10;;;5.80;99.90;;;;;;5076034;28;20181;-82
2022/02/11 16:14:55;;;;;;;0.10;0.10;;;5.80;99.90;;;;;;5071483;28;20200;-82
2022/02/11 16:17:23;;;;;;;0.00;0.00;;;5.80;99.90;;;;;;5066042;28;20276;-83
2022/02/11 16:19:52;;;;;;;0.10;0.10;;;5.70;99.90;;;;;;5061720;28;20173;-82
2022/02/11 16:22:19;;;;;;;0.10;0.10;;;5.60;99.90;;;;;;5071015;28;20676;-82
2022/02/11 16:24:48;;;;;;;0.17;0.17;;;5.60;99.90;;;;;;5072198;28;20205;-82
2022/02/11 16:27:15;;;;;;;0.10;0.10;;;5.50;99.90;;;;;;5067274;28;20181;-82
2022/02/11 16:29:42;;;;;;;0.20;0.20;;;5.40;99.90;;;;;;5069530;28;20192;-83
2022/02/11 16:32:08;;;;;;;0.10;0.10;;;5.40;99.90;;;;;;5067204;28;20184;-82
2022/02/11 16:34:34;;;;;;;0.17;0.17;;;5.40;99.90;;;;;;5072681;28;20650;-82
2022/02/11 16:37:00;;;;;;;1.03;1.03;;;5.30;99.90;;;;;;5062203;28;20254;-83
2022/02/11 16:39:25;;;;;;;0.40;0.40;;;5.30;99.90;;;;;;5066421;28;20215;-83
2022/02/11 16:41:51;;;;;;;0.07;0.07;;;5.20;99.90;;;;;;5067343;28;20190;-83
2022/02/11 16:44:18;;;;;;;0.33;0.33;;;5.10;99.90;;;;;;5073976;28;20200;-82